sensor_id;sensor_type;location;lat;lon;timestamp;P1;durP1;ratioP1;P2;durP2;ratioP2
13386;SDS011;6763;48.524;9.044;2024-03-23T00:53:08;3.00;;;2.27;;
13386;SDS011;6763;48.524;9.044;2024-03-23T00:55:34;3.20;;;2.27;;
13386;SDS011;6763;48.524;9.044;2024-03-23T00:57:59;3.57;;;2.20;;
13386;SDS011;6763;48.524;9.044;2024-03-23T01:00:25;3.90;;;2.30;;
13386;SDS011;6763;48.524;9.044;2024-03-23T01:02:50;3.07;;;2.10;;
13386;SDS011;6763;48.524;9.044;2024-03-23T01:05:15;5.80;;;2.67;;
13386;SDS011;6763;48.524;9.044;2024-03-23T01:07:41;3.00;;;2.47;;
13386;SDS011;6763;48.524;9.044;2024-03-23T01:10:07;2.87;;;2.10;;
13386;SDS011;6763;48.524;9.044;2024-03-23T01:12:32;4.37;;;2.40;;
13386;SDS011;6763;48.524;9.044;2024-03-23T01:14:57;3.37;;;2.17;;
13386;SDS011;6763;48.524;9.044;2024-03-23T01:17:23;2.90;;;2.17;;
13386;SDS011;6763;48.524;9.044;2024-03-23T01:19:49;4.40;;;2.17;;
13386;SDS011;6763;48.524;9.044;2024-03-23T01:22:14;4.40;;;2.20;;
13386;SDS011;6763;48.524;9.044;2024-03-23T01:24:40;2.47;;;1.90;;
13386;SDS011;6763;48.524;9.044;2024-03-23T01:27:05;2.70;;;2.10;;
13386;SDS011;6763;48.524;9.044;2024-03-23T01:29:31;3.67;;;2.43;;
13386;SDS011;6763;48.524;9.044;2024-03-23T01:31:56;3.17;;;2.67;;
13386;SDS011;6763;48.524;9.044;2024-03-23T01:34:21;2.70;;;2.10;;
13386;SDS011;6763;48.524;9.044;2024-03-23T01:36:47;6.00;;;3.10;;
13386;SDS011;6763;48.524;9.044;2024-03-23T01:39:13;4.47;;;2.70;;
13386;SDS011;6763;48.524;9.044;2024-03-23T01:41:39;6.33;;;2.77;;
13386;SDS011;6763;48.524;9.044;2024-03-23T01:44:07;3.30;;;2.43;;
13386;SDS011;6763;48.524;9.044;2024-03-23T01:46:36;2.73;;;2.10;;
13386;SDS011;6763;48.524;9.044;2024-03-23T01:49:03;3.30;;;2.43;;
13386;SDS011;6763;48.524;9.044;2024-03-23T01:51:30;2.87;;;2.23;;
13386;SDS011;6763;48.524;9.044;2024-03-23T01:53:56;3.17;;;2.30;;
13386;SDS011;6763;48.524;9.044;2024-03-23T01:56:22;3.47;;;2.47;;
13386;SDS011;6763;48.524;9.044;2024-03-23T01:58:47;3.07;;;2.23;;
13386;SDS011;6763;48.524;9.044;2024-03-23T02:01:13;3.90;;;2.60;;
13386;SDS011;6763;48.524;9.044;2024-03-23T02:03:38;2.93;;;2.20;;
13386;SDS011;6763;48.524;9.044;2024-03-23T02:06:04;3.30;;;2.80;;
13386;SDS011;6763;48.524;9.044;2024-03-23T02:08:36;3.30;;;2.27;;
13386;SDS011;6763;48.524;9.044;2024-03-23T02:11:01;2.70;;;2.10;;
13386;SDS011;6763;48.524;9.044;2024-03-23T02:13:27;3.23;;;1.97;;
13386;SDS011;6763;48.524;9.044;2024-03-23T02:15:52;3.00;;;2.20;;
13386;SDS011;6763;48.524;9.044;2024-03-23T02:18:17;3.43;;;2.20;;
13386;SDS011;6763;48.524;9.044;2024-03-23T02:20:43;4.67;;;2.60;;
13386;SDS011;6763;48.524;9.044;2024-03-23T02:23:15;4.07;;;3.10;;
13386;SDS011;6763;48.524;9.044;2024-03-23T02:25:41;3.23;;;2.30;;
13386;SDS011;6763;48.524;9.044;2024-03-23T02:28:08;2.70;;;2.10;;
13386;SDS011;6763;48.524;9.044;2024-03-23T02:30:34;2.40;;;2.20;;
13386;SDS011;6763;48.524;9.044;2024-03-23T02:32:59;4.00;;;2.50;;
13386;SDS011;6763;48.524;9.044;2024-03-23T02:35:25;3.10;;;2.33;;
13386;SDS011;6763;48.524;9.044;2024-03-23T02:37:50;3.17;;;2.50;;
13386;SDS011;6763;48.524;9.044;2024-03-23T02:40:16;3.03;;;2.30;;
13386;SDS011;6763;48.524;9.044;2024-03-23T02:42:42;3.60;;;2.43;;
13386;SDS011;6763;48.524;9.044;2024-03-23T02:45:07;3.27;;;2.47;;
13386;SDS011;6763;48.524;9.044;2024-03-23T02:47:33;4.10;;;2.53;;
13386;SDS011;6763;48.524;9.044;2024-03-23T02:49:58;3.80;;;2.73;;
13386;SDS011;6763;48.524;9.044;2024-03-23T02:52:24;3.70;;;2.27;;
13386;SDS011;6763;48.524;9.044;2024-03-23T02:54:50;3.10;;;2.50;;
13386;SDS011;6763;48.524;9.044;2024-03-23T02:57:15;3.07;;;2.67;;
13386;SDS011;6763;48.524;9.044;2024-03-23T02:59:41;3.07;;;2.33;;
13386;SDS011;6763;48.524;9.044;2024-03-23T03:02:07;2.83;;;2.23;;
13386;SDS011;6763;48.524;9.044;2024-03-23T03:04:33;3.97;;;2.80;;
13386;SDS011;6763;48.524;9.044;2024-03-23T03:06:58;3.33;;;2.43;;
13386;SDS011;6763;48.524;9.044;2024-03-23T03:09:23;3.37;;;2.13;;
13386;SDS011;6763;48.524;9.044;2024-03-23T03:11:49;3.40;;;2.40;;
13386;SDS011;6763;48.524;9.044;2024-03-23T03:14:14;4.37;;;3.03;;
13386;SDS011;6763;48.524;9.044;2024-03-23T03:16:41;2.50;;;2.30;;
13386;SDS011;6763;48.524;9.044;2024-03-23T03:19:06;3.83;;;2.50;;
13386;SDS011;6763;48.524;9.044;2024-03-23T03:21:32;4.30;;;2.57;;
13386;SDS011;6763;48.524;9.044;2024-03-23T03:23:57;4.90;;;2.30;;
13386;SDS011;6763;48.524;9.044;2024-03-23T03:26:23;3.67;;;2.67;;
13386;SDS011;6763;48.524;9.044;2024-03-23T03:28:48;3.80;;;2.43;;
13386;SDS011;6763;48.524;9.044;2024-03-23T03:31:15;3.40;;;2.13;;
13386;SDS011;6763;48.524;9.044;2024-03-23T03:33:41;2.93;;;2.10;;
13386;SDS011;6763;48.524;9.044;2024-03-23T03:36:08;2.67;;;1.90;;
13386;SDS011;6763;48.524;9.044;2024-03-23T03:38:33;3.93;;;2.03;;
13386;SDS011;6763;48.524;9.044;2024-03-23T03:41:00;2.70;;;2.00;;
13386;SDS011;6763;48.524;9.044;2024-03-23T03:43:27;2.90;;;2.10;;
13386;SDS011;6763;48.524;9.044;2024-03-23T03:45:55;3.53;;;1.97;;
13386;SDS011;6763;48.524;9.044;2024-03-23T03:48:21;4.20;;;1.93;;
13386;SDS011;6763;48.524;9.044;2024-03-23T03:50:47;2.37;;;2.17;;
13386;SDS011;6763;48.524;9.044;2024-03-23T03:53:12;3.90;;;1.83;;
13386;SDS011;6763;48.524;9.044;2024-03-23T03:55:38;3.13;;;2.00;;
13386;SDS011;6763;48.524;9.044;2024-03-23T03:58:03;2.20;;;2.00;;
13386;SDS011;6763;48.524;9.044;2024-03-23T04:00:29;2.20;;;1.73;;
13386;SDS011;6763;48.524;9.044;2024-03-23T04:02:55;1.83;;;1.70;;
13386;SDS011;6763;48.524;9.044;2024-03-23T04:05:20;5.20;;;1.67;;
13386;SDS011;6763;48.524;9.044;2024-03-23T04:07:46;2.00;;;1.80;;
13386;SDS011;6763;48.524;9.044;2024-03-23T04:10:11;3.30;;;2.07;;
13386;SDS011;6763;48.524;9.044;2024-03-23T04:12:36;2.10;;;1.67;;
13386;SDS011;6763;48.524;9.044;2024-03-23T04:15:02;3.17;;;1.77;;
13386;SDS011;6763;48.524;9.044;2024-03-23T04:17:29;2.97;;;1.70;;
13386;SDS011;6763;48.524;9.044;2024-03-23T04:19:57;2.10;;;1.63;;
13386;SDS011;6763;48.524;9.044;2024-03-23T04:22:23;2.37;;;1.80;;
13386;SDS011;6763;48.524;9.044;2024-03-23T04:24:49;3.17;;;1.90;;
13386;SDS011;6763;48.524;9.044;2024-03-23T04:27:15;1.97;;;1.73;;
13386;SDS011;6763;48.524;9.044;2024-03-23T04:29:40;3.77;;;1.80;;
13386;SDS011;6763;48.524;9.044;2024-03-23T04:32:05;1.80;;;1.57;;
13386;SDS011;6763;48.524;9.044;2024-03-23T04:34:31;3.17;;;1.80;;
13386;SDS011;6763;48.524;9.044;2024-03-23T04:36:57;2.40;;;1.90;;
13386;SDS011;6763;48.524;9.044;2024-03-23T04:39:23;2.43;;;1.80;;
13386;SDS011;6763;48.524;9.044;2024-03-23T04:41:48;3.83;;;2.40;;
13386;SDS011;6763;48.524;9.044;2024-03-23T04:44:13;5.43;;;2.23;;
13386;SDS011;6763;48.524;9.044;2024-03-23T04:46:39;2.77;;;2.10;;
13386;SDS011;6763;48.524;9.044;2024-03-23T04:49:04;3.23;;;2.00;;
13386;SDS011;6763;48.524;9.044;2024-03-23T04:51:34;4.10;;;1.77;;
13386;SDS011;6763;48.524;9.044;2024-03-23T04:54:01;4.30;;;2.30;;
13386;SDS011;6763;48.524;9.044;2024-03-23T04:56:27;3.97;;;2.20;;
13386;SDS011;6763;48.524;9.044;2024-03-23T04:58:52;5.63;;;3.13;;
13386;SDS011;6763;48.524;9.044;2024-03-23T05:01:18;6.33;;;3.07;;
13386;SDS011;6763;48.524;9.044;2024-03-23T05:03:44;5.27;;;3.00;;
13386;SDS011;6763;48.524;9.044;2024-03-23T05:06:09;5.87;;;2.97;;
13386;SDS011;6763;48.524;9.044;2024-03-23T05:08:34;3.27;;;2.10;;
13386;SDS011;6763;48.524;9.044;2024-03-23T05:10:59;3.60;;;2.10;;
13386;SDS011;6763;48.524;9.044;2024-03-23T05:13:25;2.17;;;1.50;;
13386;SDS011;6763;48.524;9.044;2024-03-23T05:15:51;1.63;;;1.50;;
13386;SDS011;6763;48.524;9.044;2024-03-23T05:18:19;2.27;;;1.37;;
13386;SDS011;6763;48.524;9.044;2024-03-23T05:20:45;2.80;;;1.80;;
13386;SDS011;6763;48.524;9.044;2024-03-23T05:23:10;2.30;;;1.87;;
13386;SDS011;6763;48.524;9.044;2024-03-23T05:25:36;2.23;;;1.57;;
13386;SDS011;6763;48.524;9.044;2024-03-23T05:28:01;1.80;;;1.67;;
13386;SDS011;6763;48.524;9.044;2024-03-23T05:30:27;3.13;;;1.63;;
13386;SDS011;6763;48.524;9.044;2024-03-23T05:32:52;3.20;;;1.70;;
13386;SDS011;6763;48.524;9.044;2024-03-23T05:35:17;2.37;;;1.70;;
13386;SDS011;6763;48.524;9.044;2024-03-23T05:37:43;2.40;;;1.80;;
13386;SDS011;6763;48.524;9.044;2024-03-23T05:40:09;3.07;;;1.67;;
13386;SDS011;6763;48.524;9.044;2024-03-23T05:42:35;2.73;;;2.00;;
13386;SDS011;6763;48.524;9.044;2024-03-23T05:45:01;2.47;;;1.83;;
13386;SDS011;6763;48.524;9.044;2024-03-23T05:47:26;3.07;;;2.07;;
13386;SDS011;6763;48.524;9.044;2024-03-23T05:49:51;3.27;;;1.77;;
13386;SDS011;6763;48.524;9.044;2024-03-23T05:52:17;3.30;;;2.20;;
13386;SDS011;6763;48.524;9.044;2024-03-23T05:54:42;2.63;;;2.10;;
13386;SDS011;6763;48.524;9.044;2024-03-23T05:57:08;3.57;;;1.77;;
13386;SDS011;6763;48.524;9.044;2024-03-23T05:59:34;4.17;;;2.07;;
13386;SDS011;6763;48.524;9.044;2024-03-23T06:01:59;3.40;;;1.87;;
13386;SDS011;6763;48.524;9.044;2024-03-23T06:04:24;2.40;;;2.07;;
13386;SDS011;6763;48.524;9.044;2024-03-23T06:06:50;2.73;;;1.93;;
13386;SDS011;6763;48.524;9.044;2024-03-23T06:09:17;3.87;;;1.50;;
13386;SDS011;6763;48.524;9.044;2024-03-23T06:11:42;2.50;;;1.57;;
13386;SDS011;6763;48.524;9.044;2024-03-23T06:14:08;4.83;;;1.67;;
13386;SDS011;6763;48.524;9.044;2024-03-23T06:16:33;3.47;;;1.50;;
13386;SDS011;6763;48.524;9.044;2024-03-23T06:18:58;1.90;;;1.50;;
13386;SDS011;6763;48.524;9.044;2024-03-23T06:21:24;0.80;;;0.80;;
13386;SDS011;6763;48.524;9.044;2024-03-23T06:23:53;1.43;;;0.90;;
13386;SDS011;6763;48.524;9.044;2024-03-23T06:26:19;1.27;;;0.70;;
13386;SDS011;6763;48.524;9.044;2024-03-23T06:28:44;0.67;;;0.63;;
13386;SDS011;6763;48.524;9.044;2024-03-23T06:31:10;0.40;;;0.40;;
13386;SDS011;6763;48.524;9.044;2024-03-23T06:33:36;0.40;;;0.40;;
13386;SDS011;6763;48.524;9.044;2024-03-23T06:36:01;0.40;;;0.40;;
13386;SDS011;6763;48.524;9.044;2024-03-23T06:38:28;0.63;;;0.60;;
13386;SDS011;6763;48.524;9.044;2024-03-23T06:40:53;0.40;;;0.40;;
13386;SDS011;6763;48.524;9.044;2024-03-23T06:43:19;0.53;;;0.50;;
13386;SDS011;6763;48.524;9.044;2024-03-23T06:45:44;0.83;;;0.60;;
13386;SDS011;6763;48.524;9.044;2024-03-23T06:48:17;0.33;;;0.30;;
13386;SDS011;6763;48.524;9.044;2024-03-23T06:50:42;0.33;;;0.30;;
13386;SDS011;6763;48.524;9.044;2024-03-23T06:53:07;0.50;;;0.50;;
13386;SDS011;6763;48.524;9.044;2024-03-23T06:55:32;0.70;;;0.50;;
13386;SDS011;6763;48.524;9.044;2024-03-23T06:57:58;0.40;;;0.40;;
13386;SDS011;6763;48.524;9.044;2024-03-23T07:00:23;0.50;;;0.50;;
13386;SDS011;6763;48.524;9.044;2024-03-23T07:02:50;0.40;;;0.40;;
13386;SDS011;6763;48.524;9.044;2024-03-23T07:05:15;0.40;;;0.40;;
13386;SDS011;6763;48.524;9.044;2024-03-23T07:07:40;0.30;;;0.30;;
13386;SDS011;6763;48.524;9.044;2024-03-23T07:10:06;0.43;;;0.43;;
13386;SDS011;6763;48.524;9.044;2024-03-23T07:12:31;0.40;;;0.37;;
13386;SDS011;6763;48.524;9.044;2024-03-23T07:14:57;0.30;;;0.30;;
13386;SDS011;6763;48.524;9.044;2024-03-23T07:17:22;0.40;;;0.40;;
13386;SDS011;6763;48.524;9.044;2024-03-23T07:19:47;0.40;;;0.40;;
13386;SDS011;6763;48.524;9.044;2024-03-23T07:22:13;0.30;;;0.30;;
13386;SDS011;6763;48.524;9.044;2024-03-23T07:24:39;0.43;;;0.43;;
13386;SDS011;6763;48.524;9.044;2024-03-23T07:27:05;0.20;;;0.20;;
13386;SDS011;6763;48.524;9.044;2024-03-23T07:29:30;0.93;;;0.40;;
13386;SDS011;6763;48.524;9.044;2024-03-23T07:31:55;0.57;;;0.53;;
13386;SDS011;6763;48.524;9.044;2024-03-23T07:34:20;0.30;;;0.30;;
13386;SDS011;6763;48.524;9.044;2024-03-23T07:36:46;0.40;;;0.40;;
13386;SDS011;6763;48.524;9.044;2024-03-23T07:39:11;0.50;;;0.50;;
13386;SDS011;6763;48.524;9.044;2024-03-23T07:41:36;0.60;;;0.60;;
13386;SDS011;6763;48.524;9.044;2024-03-23T07:44:02;0.50;;;0.50;;
13386;SDS011;6763;48.524;9.044;2024-03-23T07:46:27;0.50;;;0.43;;
13386;SDS011;6763;48.524;9.044;2024-03-23T07:48:52;0.73;;;0.63;;
13386;SDS011;6763;48.524;9.044;2024-03-23T07:51:20;0.60;;;0.57;;
13386;SDS011;6763;48.524;9.044;2024-03-23T07:53:46;0.60;;;0.60;;
13386;SDS011;6763;48.524;9.044;2024-03-23T07:56:12;0.30;;;0.30;;
13386;SDS011;6763;48.524;9.044;2024-03-23T07:58:40;0.37;;;0.37;;
13386;SDS011;6763;48.524;9.044;2024-03-23T08:01:10;0.57;;;0.40;;
13386;SDS011;6763;48.524;9.044;2024-03-23T08:03:36;0.40;;;0.40;;
13386;SDS011;6763;48.524;9.044;2024-03-23T08:06:06;0.40;;;0.40;;
13386;SDS011;6763;48.524;9.044;2024-03-23T08:08:39;0.30;;;0.30;;
13386;SDS011;6763;48.524;9.044;2024-03-23T08:11:06;0.40;;;0.40;;
13386;SDS011;6763;48.524;9.044;2024-03-23T08:13:32;0.30;;;0.30;;
13386;SDS011;6763;48.524;9.044;2024-03-23T08:16:01;0.50;;;0.40;;
13386;SDS011;6763;48.524;9.044;2024-03-23T08:18:28;0.60;;;0.43;;
13386;SDS011;6763;48.524;9.044;2024-03-23T08:20:57;0.50;;;0.50;;
13386;SDS011;6763;48.524;9.044;2024-03-23T08:23:24;0.40;;;0.40;;
13386;SDS011;6763;48.524;9.044;2024-03-23T08:25:50;0.30;;;0.30;;
13386;SDS011;6763;48.524;9.044;2024-03-23T08:28:16;0.30;;;0.30;;
13386;SDS011;6763;48.524;9.044;2024-03-23T08:30:41;1.20;;;0.50;;
13386;SDS011;6763;48.524;9.044;2024-03-23T08:33:07;0.50;;;0.50;;
13386;SDS011;6763;48.524;9.044;2024-03-23T08:35:32;0.63;;;0.50;;
13386;SDS011;6763;48.524;9.044;2024-03-23T08:37:59;0.90;;;0.70;;
13386;SDS011;6763;48.524;9.044;2024-03-23T08:40:25;1.03;;;0.93;;
13386;SDS011;6763;48.524;9.044;2024-03-23T08:42:50;0.70;;;0.70;;
13386;SDS011;6763;48.524;9.044;2024-03-23T08:45:15;0.80;;;0.60;;
13386;SDS011;6763;48.524;9.044;2024-03-23T08:47:40;1.17;;;0.63;;
13386;SDS011;6763;48.524;9.044;2024-03-23T08:50:06;1.17;;;0.90;;
13386;SDS011;6763;48.524;9.044;2024-03-23T08:52:31;1.00;;;0.87;;
13386;SDS011;6763;48.524;9.044;2024-03-23T08:54:57;1.23;;;0.70;;
13386;SDS011;6763;48.524;9.044;2024-03-23T08:57:23;1.60;;;1.10;;
13386;SDS011;6763;48.524;9.044;2024-03-23T08:59:48;1.97;;;1.00;;
13386;SDS011;6763;48.524;9.044;2024-03-23T09:02:13;2.37;;;1.37;;
13386;SDS011;6763;48.524;9.044;2024-03-23T09:04:39;1.50;;;1.00;;
13386;SDS011;6763;48.524;9.044;2024-03-23T09:07:04;1.23;;;0.93;;
13386;SDS011;6763;48.524;9.044;2024-03-23T09:09:30;1.10;;;1.00;;
13386;SDS011;6763;48.524;9.044;2024-03-23T09:11:55;1.40;;;0.97;;
13386;SDS011;6763;48.524;9.044;2024-03-23T09:14:21;1.27;;;1.17;;
13386;SDS011;6763;48.524;9.044;2024-03-23T09:16:49;2.27;;;1.70;;
13386;SDS011;6763;48.524;9.044;2024-03-23T09:19:15;2.47;;;1.30;;
13386;SDS011;6763;48.524;9.044;2024-03-23T09:21:40;2.53;;;1.10;;
13386;SDS011;6763;48.524;9.044;2024-03-23T09:24:05;1.60;;;1.00;;
13386;SDS011;6763;48.524;9.044;2024-03-23T09:26:31;1.43;;;1.30;;
13386;SDS011;6763;48.524;9.044;2024-03-23T09:28:56;2.10;;;1.40;;
13386;SDS011;6763;48.524;9.044;2024-03-23T09:31:22;1.93;;;1.20;;
13386;SDS011;6763;48.524;9.044;2024-03-23T09:33:47;2.77;;;1.37;;
13386;SDS011;6763;48.524;9.044;2024-03-23T09:36:12;3.50;;;1.60;;
13386;SDS011;6763;48.524;9.044;2024-03-23T09:38:38;3.13;;;1.10;;
13386;SDS011;6763;48.524;9.044;2024-03-23T09:41:06;2.23;;;1.20;;
13386;SDS011;6763;48.524;9.044;2024-03-23T09:43:33;2.43;;;1.23;;
13386;SDS011;6763;48.524;9.044;2024-03-23T09:45:59;1.50;;;1.30;;
13386;SDS011;6763;48.524;9.044;2024-03-23T09:48:26;3.57;;;1.37;;
13386;SDS011;6763;48.524;9.044;2024-03-23T09:50:52;3.00;;;1.37;;
13386;SDS011;6763;48.524;9.044;2024-03-23T09:53:17;2.93;;;1.30;;
13386;SDS011;6763;48.524;9.044;2024-03-23T09:55:43;1.70;;;1.13;;
13386;SDS011;6763;48.524;9.044;2024-03-23T09:58:13;3.23;;;1.30;;
13386;SDS011;6763;48.524;9.044;2024-03-23T10:00:40;2.23;;;1.10;;
13386;SDS011;6763;48.524;9.044;2024-03-23T10:03:06;2.40;;;1.33;;
13386;SDS011;6763;48.524;9.044;2024-03-23T10:05:31;1.70;;;0.90;;
13386;SDS011;6763;48.524;9.044;2024-03-23T10:07:59;1.30;;;0.90;;
13386;SDS011;6763;48.524;9.044;2024-03-23T10:10:25;1.53;;;0.97;;
13386;SDS011;6763;48.524;9.044;2024-03-23T10:12:51;2.73;;;1.20;;
13386;SDS011;6763;48.524;9.044;2024-03-23T10:15:20;1.63;;;1.10;;
13386;SDS011;6763;48.524;9.044;2024-03-23T10:17:47;2.17;;;1.03;;
13386;SDS011;6763;48.524;9.044;2024-03-23T10:20:13;1.67;;;1.10;;
13386;SDS011;6763;48.524;9.044;2024-03-23T10:22:38;1.97;;;1.00;;
13386;SDS011;6763;48.524;9.044;2024-03-23T10:25:08;1.63;;;1.10;;
13386;SDS011;6763;48.524;9.044;2024-03-23T10:27:36;1.30;;;1.00;;
13386;SDS011;6763;48.524;9.044;2024-03-23T10:30:11;2.40;;;1.27;;
13386;SDS011;6763;48.524;9.044;2024-03-23T10:32:39;1.30;;;0.90;;
13386;SDS011;6763;48.524;9.044;2024-03-23T10:37:40;1.27;;;1.00;;
13386;SDS011;6763;48.524;9.044;2024-03-23T10:40:07;4.07;;;1.40;;
13386;SDS011;6763;48.524;9.044;2024-03-23T10:42:34;3.53;;;1.47;;
13386;SDS011;6763;48.524;9.044;2024-03-23T10:44:59;3.63;;;1.40;;
13386;SDS011;6763;48.524;9.044;2024-03-23T10:47:25;1.50;;;1.20;;
13386;SDS011;6763;48.524;9.044;2024-03-23T10:49:51;2.40;;;1.57;;
13386;SDS011;6763;48.524;9.044;2024-03-23T10:52:16;3.40;;;1.93;;
13386;SDS011;6763;48.524;9.044;2024-03-23T10:54:41;1.00;;;0.90;;
13386;SDS011;6763;48.524;9.044;2024-03-23T10:57:12;1.40;;;0.70;;
13386;SDS011;6763;48.524;9.044;2024-03-23T10:59:41;1.27;;;0.70;;
13386;SDS011;6763;48.524;9.044;2024-03-23T11:02:09;2.47;;;1.13;;
13386;SDS011;6763;48.524;9.044;2024-03-23T11:04:44;0.73;;;0.60;;
13386;SDS011;6763;48.524;9.044;2024-03-23T11:09:57;2.70;;;0.87;;
13386;SDS011;6763;48.524;9.044;2024-03-23T11:14:50;1.30;;;0.80;;
13386;SDS011;6763;48.524;9.044;2024-03-23T11:17:23;0.87;;;0.50;;
13386;SDS011;6763;48.524;9.044;2024-03-23T11:19:53;1.73;;;0.77;;
13386;SDS011;6763;48.524;9.044;2024-03-23T11:25:02;1.43;;;0.87;;
13386;SDS011;6763;48.524;9.044;2024-03-23T11:27:49;1.63;;;0.90;;
13386;SDS011;6763;48.524;9.044;2024-03-23T11:30:19;1.57;;;0.90;;
13386;SDS011;6763;48.524;9.044;2024-03-23T11:32:47;4.13;;;0.93;;
13386;SDS011;6763;48.524;9.044;2024-03-23T11:40:41;0.53;;;0.53;;
13386;SDS011;6763;48.524;9.044;2024-03-23T11:43:09;5.53;;;1.23;;
13386;SDS011;6763;48.524;9.044;2024-03-23T11:45:39;0.80;;;0.60;;
13386;SDS011;6763;48.524;9.044;2024-03-23T11:48:08;2.20;;;0.80;;
13386;SDS011;6763;48.524;9.044;2024-03-23T11:50:36;1.80;;;0.60;;
13386;SDS011;6763;48.524;9.044;2024-03-23T11:53:07;0.60;;;0.60;;
13386;SDS011;6763;48.524;9.044;2024-03-23T11:55:39;2.50;;;0.80;;
13386;SDS011;6763;48.524;9.044;2024-03-23T11:58:06;1.87;;;1.00;;
13386;SDS011;6763;48.524;9.044;2024-03-23T12:00:32;0.90;;;0.70;;
13386;SDS011;6763;48.524;9.044;2024-03-23T12:03:02;1.77;;;0.70;;
13386;SDS011;6763;48.524;9.044;2024-03-23T12:05:27;2.50;;;1.03;;
13386;SDS011;6763;48.524;9.044;2024-03-23T12:07:54;1.50;;;0.90;;
13386;SDS011;6763;48.524;9.044;2024-03-23T12:10:19;1.73;;;1.00;;
13386;SDS011;6763;48.524;9.044;2024-03-23T12:12:45;0.93;;;0.67;;
13386;SDS011;6763;48.524;9.044;2024-03-23T12:15:10;1.33;;;0.80;;
13386;SDS011;6763;48.524;9.044;2024-03-23T12:17:37;1.63;;;0.80;;
13386;SDS011;6763;48.524;9.044;2024-03-23T12:20:03;1.43;;;0.70;;
13386;SDS011;6763;48.524;9.044;2024-03-23T12:22:29;1.97;;;1.00;;
13386;SDS011;6763;48.524;9.044;2024-03-23T12:24:55;2.50;;;0.80;;
13386;SDS011;6763;48.524;9.044;2024-03-23T12:27:20;2.23;;;0.90;;
13386;SDS011;6763;48.524;9.044;2024-03-23T12:29:45;1.00;;;0.80;;
13386;SDS011;6763;48.524;9.044;2024-03-23T12:32:12;1.57;;;0.97;;
13386;SDS011;6763;48.524;9.044;2024-03-23T12:34:38;3.20;;;0.80;;
13386;SDS011;6763;48.524;9.044;2024-03-23T12:37:03;0.80;;;0.70;;
13386;SDS011;6763;48.524;9.044;2024-03-23T12:39:29;1.97;;;0.90;;
13386;SDS011;6763;48.524;9.044;2024-03-23T12:41:54;0.93;;;0.80;;
13386;SDS011;6763;48.524;9.044;2024-03-23T12:44:20;1.80;;;0.87;;
13386;SDS011;6763;48.524;9.044;2024-03-23T12:46:46;2.37;;;1.00;;
13386;SDS011;6763;48.524;9.044;2024-03-23T12:49:11;1.20;;;0.70;;
13386;SDS011;6763;48.524;9.044;2024-03-23T12:51:37;0.53;;;0.50;;
13386;SDS011;6763;48.524;9.044;2024-03-23T12:54:02;1.53;;;0.77;;
13386;SDS011;6763;48.524;9.044;2024-03-23T12:56:28;0.80;;;0.67;;
13386;SDS011;6763;48.524;9.044;2024-03-23T12:58:54;2.20;;;0.70;;
13386;SDS011;6763;48.524;9.044;2024-03-23T13:01:21;2.17;;;0.70;;
13386;SDS011;6763;48.524;9.044;2024-03-23T13:03:47;1.03;;;0.73;;
13386;SDS011;6763;48.524;9.044;2024-03-23T13:06:13;2.07;;;0.70;;
13386;SDS011;6763;48.524;9.044;2024-03-23T13:08:38;1.80;;;0.93;;
13386;SDS011;6763;48.524;9.044;2024-03-23T13:11:05;0.70;;;0.70;;
13386;SDS011;6763;48.524;9.044;2024-03-23T13:13:31;0.73;;;0.70;;
13386;SDS011;6763;48.524;9.044;2024-03-23T13:18:33;2.13;;;0.90;;
13386;SDS011;6763;48.524;9.044;2024-03-23T13:20:58;1.70;;;1.07;;
13386;SDS011;6763;48.524;9.044;2024-03-23T13:25:55;0.80;;;0.80;;
13386;SDS011;6763;48.524;9.044;2024-03-23T13:28:24;1.50;;;0.63;;
13386;SDS011;6763;48.524;9.044;2024-03-23T13:30:50;0.60;;;0.60;;
13386;SDS011;6763;48.524;9.044;2024-03-23T13:33:20;0.90;;;0.50;;
13386;SDS011;6763;48.524;9.044;2024-03-23T13:35:52;2.03;;;0.57;;
13386;SDS011;6763;48.524;9.044;2024-03-23T13:38:19;0.60;;;0.60;;
13386;SDS011;6763;48.524;9.044;2024-03-23T13:43:21;0.47;;;0.40;;
13386;SDS011;6763;48.524;9.044;2024-03-23T13:45:48;1.40;;;0.70;;
13386;SDS011;6763;48.524;9.044;2024-03-23T13:48:16;2.00;;;0.93;;
13386;SDS011;6763;48.524;9.044;2024-03-23T13:50:43;2.73;;;0.70;;
13386;SDS011;6763;48.524;9.044;2024-03-23T13:53:08;0.87;;;0.77;;
13386;SDS011;6763;48.524;9.044;2024-03-23T13:55:34;1.13;;;0.70;;
13386;SDS011;6763;48.524;9.044;2024-03-23T13:58:00;0.30;;;0.30;;
13386;SDS011;6763;48.524;9.044;2024-03-23T14:00:29;2.50;;;0.50;;
13386;SDS011;6763;48.524;9.044;2024-03-23T14:02:54;1.67;;;0.70;;
13386;SDS011;6763;48.524;9.044;2024-03-23T14:05:19;1.33;;;0.50;;
13386;SDS011;6763;48.524;9.044;2024-03-23T14:07:45;0.47;;;0.47;;
13386;SDS011;6763;48.524;9.044;2024-03-23T14:10:10;1.23;;;0.40;;
13386;SDS011;6763;48.524;9.044;2024-03-23T14:12:36;0.77;;;0.60;;
13386;SDS011;6763;48.524;9.044;2024-03-23T14:15:07;0.70;;;0.70;;
13386;SDS011;6763;48.524;9.044;2024-03-23T14:17:34;1.33;;;0.63;;
13386;SDS011;6763;48.524;9.044;2024-03-23T14:30:15;0.60;;;0.60;;
13386;SDS011;6763;48.524;9.044;2024-03-23T14:32:41;0.67;;;0.60;;
13386;SDS011;6763;48.524;9.044;2024-03-23T14:35:07;1.77;;;0.70;;
13386;SDS011;6763;48.524;9.044;2024-03-23T14:37:36;0.83;;;0.70;;
13386;SDS011;6763;48.524;9.044;2024-03-23T14:40:04;0.60;;;0.60;;
13386;SDS011;6763;48.524;9.044;2024-03-23T14:42:30;1.37;;;0.70;;
13386;SDS011;6763;48.524;9.044;2024-03-23T14:44:57;0.83;;;0.80;;
13386;SDS011;6763;48.524;9.044;2024-03-23T14:47:23;1.50;;;0.63;;
13386;SDS011;6763;48.524;9.044;2024-03-23T14:49:48;1.43;;;0.60;;
13386;SDS011;6763;48.524;9.044;2024-03-23T14:52:15;0.80;;;0.53;;
13386;SDS011;6763;48.524;9.044;2024-03-23T14:54:41;0.67;;;0.60;;
13386;SDS011;6763;48.524;9.044;2024-03-23T14:57:07;0.83;;;0.40;;
13386;SDS011;6763;48.524;9.044;2024-03-23T14:59:34;0.47;;;0.47;;
13386;SDS011;6763;48.524;9.044;2024-03-23T15:01:59;1.07;;;0.67;;
13386;SDS011;6763;48.524;9.044;2024-03-23T15:04:24;0.67;;;0.50;;
13386;SDS011;6763;48.524;9.044;2024-03-23T15:06:50;1.07;;;0.87;;
13386;SDS011;6763;48.524;9.044;2024-03-23T15:09:15;0.50;;;0.50;;
13386;SDS011;6763;48.524;9.044;2024-03-23T15:11:41;0.53;;;0.50;;
13386;SDS011;6763;48.524;9.044;2024-03-23T15:14:06;1.70;;;0.50;;
13386;SDS011;6763;48.524;9.044;2024-03-23T15:16:32;0.47;;;0.47;;
13386;SDS011;6763;48.524;9.044;2024-03-23T15:18:58;0.87;;;0.60;;
13386;SDS011;6763;48.524;9.044;2024-03-23T15:21:23;0.50;;;0.50;;
13386;SDS011;6763;48.524;9.044;2024-03-23T15:23:48;0.60;;;0.60;;
13386;SDS011;6763;48.524;9.044;2024-03-23T15:26:14;2.03;;;0.70;;
13386;SDS011;6763;48.524;9.044;2024-03-23T15:28:41;0.90;;;0.50;;
13386;SDS011;6763;48.524;9.044;2024-03-23T15:31:27;0.77;;;0.77;;
13386;SDS011;6763;48.524;9.044;2024-03-23T15:33:52;3.43;;;0.63;;
13386;SDS011;6763;48.524;9.044;2024-03-23T15:36:18;0.60;;;0.47;;
13386;SDS011;6763;48.524;9.044;2024-03-23T15:38:43;1.70;;;0.60;;
13386;SDS011;6763;48.524;9.044;2024-03-23T15:41:10;0.60;;;0.60;;
13386;SDS011;6763;48.524;9.044;2024-03-23T15:43:35;0.60;;;0.43;;
13386;SDS011;6763;48.524;9.044;2024-03-23T15:46:01;1.33;;;0.50;;
13386;SDS011;6763;48.524;9.044;2024-03-23T15:48:28;0.60;;;0.40;;
13386;SDS011;6763;48.524;9.044;2024-03-23T15:50:55;1.30;;;0.40;;
13386;SDS011;6763;48.524;9.044;2024-03-23T15:53:24;1.17;;;0.80;;
13386;SDS011;6763;48.524;9.044;2024-03-23T15:55:54;2.60;;;0.77;;
13386;SDS011;6763;48.524;9.044;2024-03-23T15:58:20;0.60;;;0.60;;
13386;SDS011;6763;48.524;9.044;2024-03-23T16:00:53;2.60;;;0.50;;
13386;SDS011;6763;48.524;9.044;2024-03-23T16:03:39;1.97;;;0.70;;
13386;SDS011;6763;48.524;9.044;2024-03-23T16:06:05;0.50;;;0.50;;
13386;SDS011;6763;48.524;9.044;2024-03-23T16:08:34;1.30;;;0.67;;
13386;SDS011;6763;48.524;9.044;2024-03-23T16:11:03;1.20;;;0.70;;
13386;SDS011;6763;48.524;9.044;2024-03-23T16:13:32;0.57;;;0.40;;
13386;SDS011;6763;48.524;9.044;2024-03-23T16:15:59;0.47;;;0.47;;
13386;SDS011;6763;48.524;9.044;2024-03-23T16:18:31;0.40;;;0.40;;
13386;SDS011;6763;48.524;9.044;2024-03-23T16:20:57;1.03;;;0.63;;